sensor_id;sensor_type;location;lat;lon;timestamp;P1;durP1;ratioP1;P2;durP2;ratioP2
12770;SDS011;6449;47.666;9.160;2022-12-18T00:06:10;55.20;;;28.90;;
12770;SDS011;6449;47.666;9.160;2022-12-18T00:11:05;54.93;;;28.50;;
12770;SDS011;6449;47.666;9.160;2022-12-18T00:16:01;55.60;;;29.10;;
12770;SDS011;6449;47.666;9.160;2022-12-18T00:20:58;55.93;;;28.73;;
12770;SDS011;6449;47.666;9.160;2022-12-18T00:25:54;55.73;;;29.50;;
12770;SDS011;6449;47.666;9.160;2022-12-18T00:30:51;56.97;;;29.43;;
12770;SDS011;6449;47.666;9.160;2022-12-18T00:35:53;51.50;;;27.90;;
12770;SDS011;6449;47.666;9.160;2022-12-18T00:47:19;55.43;;;28.93;;
12770;SDS011;6449;47.666;9.160;2022-12-18T00:52:13;50.47;;;27.93;;
12770;SDS011;6449;47.666;9.160;2022-12-18T00:57:11;55.07;;;30.10;;
12770;SDS011;6449;47.666;9.160;2022-12-18T01:02:24;49.43;;;28.67;;
12770;SDS011;6449;47.666;9.160;2022-12-18T01:07:19;56.73;;;30.10;;
12770;SDS011;6449;47.666;9.160;2022-12-18T01:12:12;54.57;;;29.30;;
12770;SDS011;6449;47.666;9.160;2022-12-18T01:17:14;50.13;;;29.43;;
12770;SDS011;6449;47.666;9.160;2022-12-18T01:22:33;58.80;;;30.47;;
12770;SDS011;6449;47.666;9.160;2022-12-18T01:27:27;58.57;;;29.07;;
12770;SDS011;6449;47.666;9.160;2022-12-18T01:32:20;57.03;;;30.97;;
12770;SDS011;6449;47.666;9.160;2022-12-18T01:37:30;57.03;;;29.27;;
12770;SDS011;6449;47.666;9.160;2022-12-18T01:42:24;56.77;;;29.80;;
12770;SDS011;6449;47.666;9.160;2022-12-18T01:47:18;57.97;;;30.40;;
12770;SDS011;6449;47.666;9.160;2022-12-18T01:52:17;59.60;;;29.80;;
12770;SDS011;6449;47.666;9.160;2022-12-18T01:57:15;58.53;;;30.77;;
12770;SDS011;6449;47.666;9.160;2022-12-18T02:02:09;54.70;;;29.40;;
12770;SDS011;6449;47.666;9.160;2022-12-18T02:07:06;55.73;;;29.97;;
12770;SDS011;6449;47.666;9.160;2022-12-18T02:12:11;57.47;;;30.30;;
12770;SDS011;6449;47.666;9.160;2022-12-18T02:17:13;53.97;;;29.37;;
12770;SDS011;6449;47.666;9.160;2022-12-18T02:22:20;51.53;;;28.13;;
12770;SDS011;6449;47.666;9.160;2022-12-18T02:27:27;55.57;;;28.80;;
12770;SDS011;6449;47.666;9.160;2022-12-18T02:32:25;54.03;;;30.10;;
12770;SDS011;6449;47.666;9.160;2022-12-18T02:37:23;51.47;;;26.17;;
12770;SDS011;6449;47.666;9.160;2022-12-18T02:42:20;48.97;;;26.93;;
12770;SDS011;6449;47.666;9.160;2022-12-18T02:47:16;48.97;;;26.83;;
12770;SDS011;6449;47.666;9.160;2022-12-18T02:52:16;49.43;;;26.20;;
12770;SDS011;6449;47.666;9.160;2022-12-18T02:57:29;45.20;;;24.53;;
12770;SDS011;6449;47.666;9.160;2022-12-18T03:02:32;45.90;;;25.80;;
12770;SDS011;6449;47.666;9.160;2022-12-18T03:07:37;47.37;;;24.90;;
12770;SDS011;6449;47.666;9.160;2022-12-18T03:12:37;45.63;;;23.77;;
12770;SDS011;6449;47.666;9.160;2022-12-18T03:17:39;48.43;;;25.53;;
12770;SDS011;6449;47.666;9.160;2022-12-18T03:22:37;49.20;;;26.03;;
12770;SDS011;6449;47.666;9.160;2022-12-18T03:27:35;53.27;;;28.47;;
12770;SDS011;6449;47.666;9.160;2022-12-18T03:32:38;54.60;;;27.13;;
12770;SDS011;6449;47.666;9.160;2022-12-18T03:37:38;50.10;;;26.17;;
12770;SDS011;6449;47.666;9.160;2022-12-18T03:42:32;50.03;;;26.53;;
12770;SDS011;6449;47.666;9.160;2022-12-18T03:47:44;54.30;;;26.83;;
12770;SDS011;6449;47.666;9.160;2022-12-18T03:52:52;51.70;;;27.80;;
12770;SDS011;6449;47.666;9.160;2022-12-18T03:57:52;57.27;;;28.97;;
12770;SDS011;6449;47.666;9.160;2022-12-18T04:02:48;56.17;;;26.03;;
12770;SDS011;6449;47.666;9.160;2022-12-18T04:07:47;52.67;;;26.60;;
12770;SDS011;6449;47.666;9.160;2022-12-18T04:12:43;50.10;;;26.90;;
12770;SDS011;6449;47.666;9.160;2022-12-18T04:17:37;52.63;;;26.60;;
12770;SDS011;6449;47.666;9.160;2022-12-18T04:22:36;49.27;;;24.80;;
12770;SDS011;6449;47.666;9.160;2022-12-18T04:27:29;48.00;;;26.70;;
12770;SDS011;6449;47.666;9.160;2022-12-18T04:32:22;51.60;;;26.73;;
12770;SDS011;6449;47.666;9.160;2022-12-18T04:37:16;42.83;;;23.30;;
12770;SDS011;6449;47.666;9.160;2022-12-18T04:42:11;41.40;;;22.60;;
12770;SDS011;6449;47.666;9.160;2022-12-18T04:47:05;40.83;;;21.93;;
12770;SDS011;6449;47.666;9.160;2022-12-18T04:51:58;46.60;;;24.03;;
12770;SDS011;6449;47.666;9.160;2022-12-18T04:56:51;43.50;;;24.90;;
12770;SDS011;6449;47.666;9.160;2022-12-18T05:01:46;48.47;;;25.60;;
12770;SDS011;6449;47.666;9.160;2022-12-18T05:06:40;45.70;;;24.83;;
12770;SDS011;6449;47.666;9.160;2022-12-18T05:11:33;48.90;;;25.83;;
12770;SDS011;6449;47.666;9.160;2022-12-18T05:16:30;47.37;;;25.10;;
12770;SDS011;6449;47.666;9.160;2022-12-18T05:21:24;47.33;;;26.03;;
12770;SDS011;6449;47.666;9.160;2022-12-18T05:26:18;50.07;;;25.80;;
12770;SDS011;6449;47.666;9.160;2022-12-18T05:31:12;49.57;;;25.40;;
12770;SDS011;6449;47.666;9.160;2022-12-18T05:36:07;50.83;;;26.70;;
12770;SDS011;6449;47.666;9.160;2022-12-18T05:41:04;50.57;;;27.60;;
12770;SDS011;6449;47.666;9.160;2022-12-18T05:45:57;57.10;;;27.93;;
12770;SDS011;6449;47.666;9.160;2022-12-18T05:50:56;53.90;;;28.17;;
12770;SDS011;6449;47.666;9.160;2022-12-18T05:55:59;56.40;;;28.30;;
12770;SDS011;6449;47.666;9.160;2022-12-18T06:00:55;52.00;;;26.07;;
12770;SDS011;6449;47.666;9.160;2022-12-18T06:05:49;49.23;;;25.93;;
12770;SDS011;6449;47.666;9.160;2022-12-18T06:10:49;58.53;;;28.70;;
12770;SDS011;6449;47.666;9.160;2022-12-18T06:15:43;55.83;;;27.50;;
12770;SDS011;6449;47.666;9.160;2022-12-18T06:20:38;52.00;;;27.40;;
12770;SDS011;6449;47.666;9.160;2022-12-18T06:25:32;52.67;;;26.90;;
12770;SDS011;6449;47.666;9.160;2022-12-18T06:30:25;52.87;;;27.97;;
12770;SDS011;6449;47.666;9.160;2022-12-18T06:35:19;56.00;;;27.58;;
12770;SDS011;6449;47.666;9.160;2022-12-18T06:40:14;57.30;;;28.83;;
12770;SDS011;6449;47.666;9.160;2022-12-18T06:45:08;51.70;;;27.23;;
12770;SDS011;6449;47.666;9.160;2022-12-18T06:50:02;56.67;;;28.67;;
12770;SDS011;6449;47.666;9.160;2022-12-18T06:54:56;52.30;;;28.10;;
12770;SDS011;6449;47.666;9.160;2022-12-18T06:59:51;53.50;;;27.00;;
12770;SDS011;6449;47.666;9.160;2022-12-18T07:04:45;49.77;;;26.03;;
12770;SDS011;6449;47.666;9.160;2022-12-18T07:09:40;53.93;;;26.80;;
12770;SDS011;6449;47.666;9.160;2022-12-18T07:14:34;56.43;;;27.43;;
12770;SDS011;6449;47.666;9.160;2022-12-18T07:19:28;57.30;;;27.77;;
12770;SDS011;6449;47.666;9.160;2022-12-18T07:24:22;49.83;;;26.03;;
12770;SDS011;6449;47.666;9.160;2022-12-18T07:29:15;53.43;;;27.30;;
12770;SDS011;6449;47.666;9.160;2022-12-18T07:34:09;53.87;;;28.23;;
12770;SDS011;6449;47.666;9.160;2022-12-18T07:39:05;57.70;;;28.60;;
12770;SDS011;6449;47.666;9.160;2022-12-18T07:43:58;57.23;;;29.10;;
12770;SDS011;6449;47.666;9.160;2022-12-18T07:48:52;53.30;;;27.93;;
12770;SDS011;6449;47.666;9.160;2022-12-18T07:53:45;60.17;;;28.40;;
12770;SDS011;6449;47.666;9.160;2022-12-18T07:58:44;54.33;;;28.00;;
12770;SDS011;6449;47.666;9.160;2022-12-18T08:03:42;54.87;;;27.73;;
12770;SDS011;6449;47.666;9.160;2022-12-18T08:08:35;56.07;;;28.50;;
12770;SDS011;6449;47.666;9.160;2022-12-18T08:13:29;51.60;;;26.60;;
12770;SDS011;6449;47.666;9.160;2022-12-18T08:18:24;51.60;;;26.83;;
12770;SDS011;6449;47.666;9.160;2022-12-18T08:23:17;52.03;;;27.37;;
12770;SDS011;6449;47.666;9.160;2022-12-18T08:28:11;53.47;;;26.73;;
12770;SDS011;6449;47.666;9.160;2022-12-18T08:33:07;51.33;;;27.20;;
12770;SDS011;6449;47.666;9.160;2022-12-18T08:38:02;55.20;;;26.17;;
12770;SDS011;6449;47.666;9.160;2022-12-18T08:42:55;52.43;;;26.50;;
12770;SDS011;6449;47.666;9.160;2022-12-18T08:48:06;52.67;;;24.73;;
12770;SDS011;6449;47.666;9.160;2022-12-18T08:53:00;52.73;;;26.07;;
12770;SDS011;6449;47.666;9.160;2022-12-18T08:57:55;54.43;;;25.50;;
12770;SDS011;6449;47.666;9.160;2022-12-18T09:02:49;46.80;;;24.07;;
12770;SDS011;6449;47.666;9.160;2022-12-18T09:07:42;52.47;;;26.67;;
12770;SDS011;6449;47.666;9.160;2022-12-18T09:12:37;54.60;;;26.40;;
12770;SDS011;6449;47.666;9.160;2022-12-18T09:17:31;50.30;;;25.70;;
12770;SDS011;6449;47.666;9.160;2022-12-18T09:22:24;52.70;;;26.27;;
12770;SDS011;6449;47.666;9.160;2022-12-18T09:27:18;57.17;;;26.17;;
12770;SDS011;6449;47.666;9.160;2022-12-18T09:32:12;51.07;;;25.43;;
12770;SDS011;6449;47.666;9.160;2022-12-18T09:37:12;51.70;;;27.13;;
12770;SDS011;6449;47.666;9.160;2022-12-18T09:42:05;49.50;;;24.77;;
12770;SDS011;6449;47.666;9.160;2022-12-18T09:47:09;52.37;;;27.87;;
12770;SDS011;6449;47.666;9.160;2022-12-18T09:52:12;49.53;;;23.80;;
12770;SDS011;6449;47.666;9.160;2022-12-18T09:57:13;48.97;;;24.53;;
12770;SDS011;6449;47.666;9.160;2022-12-18T11:53:26;41.87;;;20.07;;
12770;SDS011;6449;47.666;9.160;2022-12-18T11:58:24;45.00;;;22.67;;
12770;SDS011;6449;47.666;9.160;2022-12-18T12:54:51;42.50;;;21.70;;
12770;SDS011;6449;47.666;9.160;2022-12-18T12:59:47;50.03;;;22.30;;
12770;SDS011;6449;47.666;9.160;2022-12-18T13:04:56;46.27;;;22.13;;
12770;SDS011;6449;47.666;9.160;2022-12-18T13:10:13;46.77;;;22.90;;
12770;SDS011;6449;47.666;9.160;2022-12-18T13:15:29;48.80;;;23.37;;
12770;SDS011;6449;47.666;9.160;2022-12-18T13:20:51;49.33;;;22.33;;
12770;SDS011;6449;47.666;9.160;2022-12-18T13:36:54;49.67;;;23.47;;
12770;SDS011;6449;47.666;9.160;2022-12-18T13:41:51;51.97;;;23.67;;
12770;SDS011;6449;47.666;9.160;2022-12-18T13:54:17;45.00;;;22.10;;
12770;SDS011;6449;47.666;9.160;2022-12-18T13:59:16;44.10;;;21.60;;
12770;SDS011;6449;47.666;9.160;2022-12-18T14:22:42;50.87;;;22.90;;
12770;SDS011;6449;47.666;9.160;2022-12-18T14:27:41;51.20;;;23.37;;
12770;SDS011;6449;47.666;9.160;2022-12-18T14:32:37;50.80;;;22.57;;
12770;SDS011;6449;47.666;9.160;2022-12-18T14:37:31;49.53;;;23.17;;
12770;SDS011;6449;47.666;9.160;2022-12-18T14:42:25;52.87;;;23.53;;
12770;SDS011;6449;47.666;9.160;2022-12-18T14:47:20;48.60;;;22.60;;
12770;SDS011;6449;47.666;9.160;2022-12-18T14:52:17;45.70;;;21.90;;
12770;SDS011;6449;47.666;9.160;2022-12-18T14:57:21;42.27;;;21.47;;
12770;SDS011;6449;47.666;9.160;2022-12-18T15:02:18;50.03;;;22.60;;
12770;SDS011;6449;47.666;9.160;2022-12-18T15:07:17;42.27;;;21.43;;
12770;SDS011;6449;47.666;9.160;2022-12-18T15:12:28;46.83;;;21.73;;
12770;SDS011;6449;47.666;9.160;2022-12-18T15:17:27;44.63;;;21.97;;
12770;SDS011;6449;47.666;9.160;2022-12-18T15:22:22;48.37;;;22.97;;
12770;SDS011;6449;47.666;9.160;2022-12-18T15:27:20;47.47;;;22.10;;
12770;SDS011;6449;47.666;9.160;2022-12-18T15:32:22;47.33;;;22.93;;
12770;SDS011;6449;47.666;9.160;2022-12-18T15:37:16;49.47;;;23.07;;
12770;SDS011;6449;47.666;9.160;2022-12-18T15:42:09;45.97;;;20.50;;
12770;SDS011;6449;47.666;9.160;2022-12-18T15:47:21;48.07;;;22.13;;
12770;SDS011;6449;47.666;9.160;2022-12-18T15:52:15;44.17;;;21.67;;
12770;SDS011;6449;47.666;9.160;2022-12-18T15:57:17;45.47;;;22.70;;
12770;SDS011;6449;47.666;9.160;2022-12-18T16:02:17;49.80;;;22.40;;
12770;SDS011;6449;47.666;9.160;2022-12-18T16:07:15;46.33;;;23.20;;
12770;SDS011;6449;47.666;9.160;2022-12-18T16:12:16;50.43;;;22.20;;
12770;SDS011;6449;47.666;9.160;2022-12-18T16:17:13;50.67;;;23.20;;
12770;SDS011;6449;47.666;9.160;2022-12-18T16:22:08;46.33;;;22.90;;
12770;SDS011;6449;47.666;9.160;2022-12-18T16:27:13;44.77;;;21.47;;
12770;SDS011;6449;47.666;9.160;2022-12-18T16:32:08;49.77;;;22.57;;
12770;SDS011;6449;47.666;9.160;2022-12-18T16:37:07;39.07;;;20.40;;
12770;SDS011;6449;47.666;9.160;2022-12-18T16:42:05;44.77;;;21.90;;
12770;SDS011;6449;47.666;9.160;2022-12-18T16:47:05;45.87;;;24.87;;
12770;SDS011;6449;47.666;9.160;2022-12-18T16:52:01;44.90;;;22.77;;
12770;SDS011;6449;47.666;9.160;2022-12-18T16:56:55;53.47;;;24.73;;
12770;SDS011;6449;47.666;9.160;2022-12-18T17:01:50;45.63;;;23.60;;
12770;SDS011;6449;47.666;9.160;2022-12-18T17:06:44;50.90;;;25.30;;
12770;SDS011;6449;47.666;9.160;2022-12-18T17:11:42;50.37;;;24.63;;
12770;SDS011;6449;47.666;9.160;2022-12-18T17:16:36;48.13;;;24.37;;
12770;SDS011;6449;47.666;9.160;2022-12-18T17:21:31;50.80;;;24.53;;
12770;SDS011;6449;47.666;9.160;2022-12-18T17:26:25;53.07;;;25.13;;
12770;SDS011;6449;47.666;9.160;2022-12-18T18:04:11;52.90;;;25.00;;
12770;SDS011;6449;47.666;9.160;2022-12-18T18:09:06;49.73;;;24.83;;
12770;SDS011;6449;47.666;9.160;2022-12-18T18:14:10;53.47;;;24.70;;
12770;SDS011;6449;47.666;9.160;2022-12-18T18:25:39;55.03;;;26.37;;
12770;SDS011;6449;47.666;9.160;2022-12-18T18:43:10;52.80;;;26.60;;
12770;SDS011;6449;47.666;9.160;2022-12-18T19:07:38;55.53;;;25.00;;
12770;SDS011;6449;47.666;9.160;2022-12-18T20:17:12;59.13;;;26.53;;
12770;SDS011;6449;47.666;9.160;2022-12-18T20:22:06;64.93;;;29.53;;
12770;SDS011;6449;47.666;9.160;2022-12-18T20:33:33;56.60;;;26.70;;
12770;SDS011;6449;47.666;9.160;2022-12-18T20:38:27;53.83;;;26.57;;
12770;SDS011;6449;47.666;9.160;2022-12-18T20:43:25;59.83;;;28.83;;
12770;SDS011;6449;47.666;9.160;2022-12-18T20:48:18;63.07;;;27.97;;
12770;SDS011;6449;47.666;9.160;2022-12-18T20:53:18;59.53;;;29.00;;
12770;SDS011;6449;47.666;9.160;2022-12-18T20:58:11;54.87;;;26.50;;
12770;SDS011;6449;47.666;9.160;2022-12-18T21:03:05;62.23;;;29.37;;
12770;SDS011;6449;47.666;9.160;2022-12-18T21:07:58;65.50;;;29.30;;
12770;SDS011;6449;47.666;9.160;2022-12-18T21:45:47;62.34;;;28.86;;
12770;SDS011;6449;47.666;9.160;2022-12-18T21:50:43;61.77;;;29.50;;
12770;SDS011;6449;47.666;9.160;2022-12-18T22:02:09;63.43;;;29.13;;
12770;SDS011;6449;47.666;9.160;2022-12-18T22:07:06;63.33;;;26.60;;
12770;SDS011;6449;47.666;9.160;2022-12-18T22:18:33;63.50;;;28.67;;
12770;SDS011;6449;47.666;9.160;2022-12-18T22:23:26;57.77;;;26.77;;
12770;SDS011;6449;47.666;9.160;2022-12-18T22:28:20;63.83;;;27.50;;
12770;SDS011;6449;47.666;9.160;2022-12-18T22:33:27;64.57;;;26.97;;
12770;SDS011;6449;47.666;9.160;2022-12-18T22:38:22;60.70;;;27.50;;
12770;SDS011;6449;47.666;9.160;2022-12-18T22:43:16;57.17;;;26.57;;
12770;SDS011;6449;47.666;9.160;2022-12-18T22:48:10;58.67;;;27.13;;
12770;SDS011;6449;47.666;9.160;2022-12-18T22:53:04;59.97;;;27.27;;
12770;SDS011;6449;47.666;9.160;2022-12-18T22:57:59;60.43;;;27.57;;
12770;SDS011;6449;47.666;9.160;2022-12-18T23:02:52;57.20;;;26.90;;
12770;SDS011;6449;47.666;9.160;2022-12-18T23:07:51;64.27;;;29.13;;
12770;SDS011;6449;47.666;9.160;2022-12-18T23:12:44;60.83;;;27.80;;
12770;SDS011;6449;47.666;9.160;2022-12-18T23:17:39;54.77;;;26.10;;
12770;SDS011;6449;47.666;9.160;2022-12-18T23:22:32;63.67;;;29.37;;
12770;SDS011;6449;47.666;9.160;2022-12-18T23:27:26;64.57;;;28.13;;
12770;SDS011;6449;47.666;9.160;2022-12-18T23:32:19;59.93;;;28.57;;
12770;SDS011;6449;47.666;9.160;2022-12-18T23:37:13;65.50;;;28.03;;
12770;SDS011;6449;47.666;9.160;2022-12-18T23:42:27;62.17;;;28.97;;
